createdAt,value
2023-01-19T00:01:01.530Z,98254.34
2023-01-19T00:03:29.197Z,98253.16
2023-01-19T00:05:56.284Z,98252.16
2023-01-19T00:08:23.929Z,98247.94
2023-01-19T00:10:53.799Z,98252.16
2023-01-19T00:13:21.619Z,98242.75
2023-01-19T00:15:48.714Z,98249.97
2023-01-19T00:18:18.804Z,98254.69
2023-01-19T00:20:46.993Z,98264.88
2023-01-19T00:23:15.460Z,98262.94
2023-01-19T00:25:44.118Z,98263.41
2023-01-19T00:28:14.171Z,98261.91
2023-01-19T00:30:42.495Z,98260.19
2023-01-19T00:33:11.253Z,98262.44
2023-01-19T00:35:38.549Z,98267.13
2023-01-19T00:38:05.917Z,98274.13
2023-01-19T00:40:33.151Z,98270.88
2023-01-19T00:43:01.031Z,98255.00
2023-01-19T00:45:28.340Z,98256.72
2023-01-19T00:47:58.374Z,98249.53
2023-01-19T00:50:29.133Z,98249.53
2023-01-19T00:52:57.681Z,98245.81
2023-01-19T00:55:31.199Z,98241.09
2023-01-19T00:57:59.073Z,98236.88
2023-01-19T01:00:26.645Z,98244.84
2023-01-19T01:02:54.453Z,98239.13
2023-01-19T01:05:22.439Z,98238.63
2023-01-19T01:07:50.739Z,98247.84
2023-01-19T01:10:22.948Z,98257.06
2023-01-19T01:12:54.905Z,98252.81
2023-01-19T01:15:26.559Z,98257.56
2023-01-19T01:17:54.247Z,98257.56
2023-01-19T01:20:24.578Z,98258.56
2023-01-19T01:22:53.695Z,98273.47
2023-01-19T01:25:23.094Z,98283.66
2023-01-19T01:27:51.049Z,98283.66
2023-01-19T01:30:18.958Z,98278.44
2023-01-19T01:32:46.581Z,98275.47
2023-01-19T01:35:14.455Z,98274.97
2023-01-19T01:37:47.746Z,98275.47
2023-01-19T01:40:17.399Z,98268.53
2023-01-19T01:42:51.675Z,98263.06
2023-01-19T01:45:35.983Z,98270.25
2023-01-19T01:48:12.631Z,98282.47
2023-01-19T01:51:06.971Z,98289.91
2023-01-19T01:53:36.829Z,98296.13
2023-01-19T01:56:09.883Z,98308.06
2023-01-19T01:58:38.978Z,98295.38
2023-01-19T02:01:26.309Z,98296.88
2023-01-19T02:03:58.311Z,98297.16
2023-01-19T02:06:26.643Z,98291.19
2023-01-19T02:09:14.636Z,98297.88
2023-01-19T02:12:00.765Z,98294.16
2023-01-19T02:14:28.226Z,98283.69
2023-01-19T02:16:55.320Z,98293.41
2023-01-19T02:19:34.549Z,98282.72
2023-01-19T02:22:13.665Z,98293.66
2023-01-19T02:24:41.206Z,98300.84
2023-01-19T02:27:10.001Z,98294.66
2023-01-19T02:29:40.127Z,98300.13
2023-01-19T02:32:08.859Z,98297.59
2023-01-19T02:34:36.390Z,98297.16
2023-01-19T02:37:12.235Z,98297.41
2023-01-19T02:39:50.867Z,98298.63
2023-01-19T02:42:36.063Z,98295.38
2023-01-19T02:45:07.014Z,98307.31
2023-01-19T02:47:48.069Z,98322.75
2023-01-19T02:50:50.698Z,98329.69
2023-01-19T02:53:36.831Z,98336.66
2023-01-19T02:56:24.864Z,98337.91
2023-01-19T02:59:06.437Z,98327.72
2023-01-19T03:02:11.239Z,98316.28
2023-01-19T03:05:20.160Z,98327.47
2023-01-19T03:07:58.765Z,98321.03
2023-01-19T03:10:47.624Z,98311.31
2023-01-19T03:13:51.835Z,98318.03
2023-01-19T03:16:40.928Z,98313.34
2023-01-19T03:19:20.297Z,98320.03
2023-01-19T03:21:59.117Z,98317.03
2023-01-19T03:24:30.929Z,98311.34
2023-01-19T03:27:04.252Z,98318.28
2023-01-19T03:29:35.312Z,98325.50
2023-01-19T03:32:07.075Z,98337.69
2023-01-19T03:34:36.072Z,98344.34
2023-01-19T03:37:08.274Z,98347.09
2023-01-19T03:39:36.249Z,98338.41
2023-01-19T03:42:09.111Z,98341.63
2023-01-19T03:44:44.142Z,98362.25
2023-01-19T03:47:13.951Z,98360.75
2023-01-19T03:49:45.312Z,98372.94
2023-01-19T03:52:13.004Z,98375.16
2023-01-19T03:54:41.142Z,98381.09
2023-01-19T03:57:08.446Z,98390.06
2023-01-19T03:59:36.295Z,98396.53
2023-01-19T04:02:03.456Z,98401.75
2023-01-19T04:04:30.805Z,98396.75
2023-01-19T04:06:57.880Z,98393.53
2023-01-19T04:09:25.862Z,98393.28
2023-01-19T04:11:53.435Z,98399.75
2023-01-19T04:14:20.794Z,98392.31
2023-01-19T04:16:50.375Z,98388.84
2023-01-19T04:19:17.833Z,98373.44
2023-01-19T04:21:44.885Z,98370.97
2023-01-19T04:24:14.594Z,98372.44
2023-01-19T04:26:41.578Z,98360.50
2023-01-19T04:29:11.673Z,98366.22
2023-01-19T04:31:38.696Z,98369.44
2023-01-19T04:34:06.184Z,98370.69
2023-01-19T04:36:33.348Z,98367.22
2023-01-19T04:39:00.844Z,98364.97
2023-01-19T04:41:28.743Z,98368.47
2023-01-19T04:43:57.574Z,98366.72
2023-01-19T04:46:26.823Z,98372.69
2023-01-19T04:48:54.167Z,98369.47
2023-01-19T04:51:21.207Z,98382.59
2023-01-19T04:53:48.556Z,98382.84
2023-01-19T04:56:15.607Z,98382.09
2023-01-19T04:58:43.221Z,98382.59
2023-01-19T05:01:10.314Z,98384.59
2023-01-19T05:03:37.737Z,98386.34
2023-01-19T05:06:04.936Z,98397.00
2023-01-19T05:08:32.323Z,98401.22
2023-01-19T05:11:02.021Z,98402.97
2023-01-19T05:13:29.392Z,98411.41
2023-01-19T05:15:56.462Z,98411.41
2023-01-19T05:18:23.832Z,98414.59
2023-01-19T05:20:53.100Z,98416.13
2023-01-19T05:23:20.802Z,98412.88
2023-01-19T05:25:47.854Z,98422.81
2023-01-19T05:28:15.416Z,98426.78
2023-01-19T05:30:42.797Z,98429.28
2023-01-19T05:33:12.609Z,98431.03
2023-01-19T05:35:39.763Z,98437.97
2023-01-19T05:38:07.386Z,98440.72
2023-01-19T05:40:34.508Z,98435.25
2023-01-19T05:43:05.180Z,98433.28
2023-01-19T05:45:32.795Z,98421.88
2023-01-19T05:48:00.405Z,98430.06
2023-01-19T05:50:29.958Z,98425.06
2023-01-19T05:52:58.808Z,98422.59
2023-01-19T05:55:28.585Z,98418.38
2023-01-19T05:57:55.925Z,98412.19
2023-01-19T06:00:23.472Z,98412.19
2023-01-19T06:02:51.049Z,98417.13
2023-01-19T06:05:18.172Z,98415.41
2023-01-19T06:07:46.151Z,98409.44
2023-01-19T06:10:13.320Z,98410.16
2023-01-19T06:12:44.161Z,98407.44
2023-01-19T06:15:11.822Z,98408.94
2023-01-19T06:17:39.320Z,98415.41
2023-01-19T06:20:07.158Z,98417.38
2023-01-19T06:22:34.646Z,98420.13
2023-01-19T06:25:01.702Z,98436.25
2023-01-19T06:27:29.331Z,98441.72
2023-01-19T06:29:56.394Z,98436.50
2023-01-19T06:32:26.049Z,98443.72
2023-01-19T06:34:54.073Z,98442.97
2023-01-19T06:37:21.586Z,98438.75
2023-01-19T06:39:50.984Z,98429.06
2023-01-19T06:42:18.301Z,98431.78
2023-01-19T06:44:47.619Z,98422.88
2023-01-19T06:47:20.419Z,98430.06
2023-01-19T06:49:48.262Z,98418.88
2023-01-19T06:52:20.033Z,98417.91
2023-01-19T06:54:47.454Z,98399.25
2023-01-19T06:57:17.359Z,98396.53
2023-01-19T06:59:44.672Z,98386.56
2023-01-19T07:02:26.270Z,98385.59
2023-01-19T07:04:54.282Z,98407.47
2023-01-19T07:07:21.714Z,98423.59
2023-01-19T07:09:51.515Z,98443.47
2023-01-19T07:12:22.655Z,98455.13
2023-01-19T07:14:49.915Z,98459.13
2023-01-19T07:17:17.627Z,98459.13
2023-01-19T07:19:45.450Z,98467.59
2023-01-19T07:22:12.957Z,98470.81
2023-01-19T07:24:40.212Z,98486.22
2023-01-19T07:27:07.631Z,98488.44
2023-01-19T07:29:34.699Z,98497.88
2023-01-19T07:32:02.054Z,98499.63
2023-01-19T07:34:29.566Z,98504.88
2023-01-19T07:36:57.102Z,98502.34
2023-01-19T07:39:26.487Z,98502.09
2023-01-19T07:41:54.056Z,98503.63
2023-01-19T07:44:23.363Z,98493.19
2023-01-19T07:46:51.283Z,98482.47
2023-01-19T07:49:18.632Z,98478.78
2023-01-19T07:51:46.929Z,98466.06
2023-01-19T07:54:14.129Z,98458.38
2023-01-19T07:56:41.537Z,98444.47
2023-01-19T07:59:11.229Z,98448.44
2023-01-19T08:01:39.027Z,98436.75
2023-01-19T08:04:08.562Z,98448.44
2023-01-19T08:06:38.500Z,98463.34
2023-01-19T08:09:08.571Z,98462.84
2023-01-19T08:11:37.004Z,98459.38
2023-01-19T08:14:06.291Z,98460.09
2023-01-19T08:16:36.265Z,98461.84
2023-01-19T08:19:04.018Z,98477.28
2023-01-19T08:21:33.422Z,98489.44
2023-01-19T08:24:00.598Z,98498.91
2023-01-19T08:26:30.087Z,98503.59
2023-01-19T08:29:00.242Z,98513.56
2023-01-19T08:31:28.075Z,98525.72
2023-01-19T08:33:55.573Z,98522.97
2023-01-19T08:36:25.060Z,98529.47
2023-01-19T08:38:54.509Z,98521.50
2023-01-19T08:41:22.458Z,98518.50
2023-01-19T08:43:50.028Z,98522.72
2023-01-19T08:46:20.809Z,98531.44
2023-01-19T08:48:50.871Z,98524.47
2023-01-19T08:51:19.037Z,98523.72
2023-01-19T08:53:46.199Z,98521.00
2023-01-19T08:56:14.550Z,98527.69
2023-01-19T08:58:43.268Z,98524.47
2023-01-19T09:01:14.964Z,98528.69
2023-01-19T09:03:42.554Z,98520.75
2023-01-19T09:06:11.891Z,98530.19
2023-01-19T09:08:39.381Z,98532.66
2023-01-19T09:11:11.557Z,98535.38
2023-01-19T09:13:39.614Z,98540.34
2023-01-19T09:16:08.872Z,98549.53
2023-01-19T09:18:38.940Z,98546.53
2023-01-19T09:21:09.879Z,98540.59
2023-01-19T09:23:37.466Z,98549.28
2023-01-19T09:26:07.700Z,98554.25
2023-01-19T09:28:35.130Z,98554.50
2023-01-19T09:31:07.922Z,98556.47
2023-01-19T09:33:35.815Z,98560.44
2023-01-19T09:36:03.485Z,98559.44
2023-01-19T09:38:33.068Z,98537.28
2023-01-19T09:41:01.551Z,98546.97
2023-01-19T09:43:41.505Z,98541.72
2023-01-19T09:46:16.962Z,98538.03
2023-01-19T09:48:54.031Z,98545.72
2023-01-19T09:51:26.403Z,98547.69
2023-01-19T09:54:15.930Z,98547.94
2023-01-19T09:56:46.206Z,98548.19
2023-01-19T09:59:13.396Z,98553.66
2023-01-19T10:02:01.132Z,98553.84
2023-01-19T10:04:28.077Z,98552.31
2023-01-19T10:07:11.282Z,98548.59
2023-01-19T10:09:41.271Z,98553.78
2023-01-19T10:12:33.603Z,98568.47
2023-01-19T10:15:25.489Z,98560.47
2023-01-19T10:18:13.414Z,98559.16
2023-01-19T10:20:51.194Z,98558.50
2023-01-19T10:23:41.242Z,98549.03
2023-01-19T10:26:37.649Z,98563.25
2023-01-19T10:29:13.753Z,98554.81
2023-01-19T10:31:43.535Z,98559.28
2023-01-19T10:34:23.008Z,98550.34
2023-01-19T10:36:58.033Z,98552.50
2023-01-19T10:39:25.493Z,98554.34
2023-01-19T10:41:53.862Z,98557.19
2023-01-19T10:44:34.669Z,98565.66
2023-01-19T10:47:02.311Z,98568.53
2023-01-19T10:49:36.971Z,98568.34
2023-01-19T10:52:07.031Z,98567.19
2023-01-19T10:54:37.397Z,98570.13
2023-01-19T10:57:09.725Z,98563.66
2023-01-19T10:59:55.304Z,98563.38
2023-01-19T11:02:31.583Z,98567.88
2023-01-19T11:05:01.885Z,98576.09
2023-01-19T11:07:35.756Z,98567.09
2023-01-19T11:10:15.394Z,98573.34
2023-01-19T11:12:58.493Z,98567.31
2023-01-19T11:15:32.935Z,98563.59
2023-01-19T11:18:01.393Z,98564.78
2023-01-19T11:20:37.533Z,98569.53
2023-01-19T11:23:06.292Z,98558.59
2023-01-19T11:25:36.279Z,98565.59
2023-01-19T11:28:03.943Z,98563.19
2023-01-19T11:30:32.174Z,98569.72
2023-01-19T11:32:59.729Z,98581.91
2023-01-19T11:35:36.142Z,98578.63
2023-01-19T11:38:07.824Z,98591.59
2023-01-19T11:40:36.046Z,98585.44
2023-01-19T11:43:03.580Z,98595.22
2023-01-19T11:45:37.121Z,98591.50
2023-01-19T11:48:07.072Z,98586.81
2023-01-19T11:50:37.588Z,98584.81
2023-01-19T11:53:23.571Z,98600.50
2023-01-19T11:55:59.787Z,98597.03
2023-01-19T11:58:27.502Z,98603.25
2023-01-19T12:01:00.857Z,98597.03
2023-01-19T12:03:32.187Z,98602.25
2023-01-19T12:06:05.556Z,98602.50
2023-01-19T12:08:44.347Z,98608.50
2023-01-19T12:11:18.874Z,98605.03
2023-01-19T12:13:47.179Z,98604.03
2023-01-19T12:16:21.222Z,98605.75
2023-01-19T12:18:53.517Z,98599.56
2023-01-19T12:21:23.378Z,98605.25
2023-01-19T12:24:13.698Z,98604.28
2023-01-19T12:26:46.015Z,98607.78
2023-01-19T12:29:18.580Z,98608.53
2023-01-19T12:31:46.202Z,98609.53
2023-01-19T12:34:41.131Z,98605.56
2023-01-19T12:37:32.187Z,98606.31
2023-01-19T12:40:03.145Z,98613.53
2023-01-19T12:42:30.738Z,98612.03
2023-01-19T12:45:12.534Z,98610.53
2023-01-19T12:47:40.206Z,98614.25
2023-01-19T12:50:17.414Z,98606.56
2023-01-19T12:52:57.518Z,98605.06
2023-01-19T12:55:31.284Z,98608.53
2023-01-19T12:58:17.864Z,98606.31
2023-01-19T13:00:47.391Z,98606.56
2023-01-19T13:03:35.232Z,98601.84
2023-01-19T13:06:02.355Z,98590.88
2023-01-19T13:08:56.660Z,98602.59
2023-01-19T13:11:29.387Z,98609.78
2023-01-19T13:13:58.954Z,98596.09
2023-01-19T13:16:27.811Z,98605.53
2023-01-19T13:19:07.907Z,98612.78
2023-01-19T13:21:44.817Z,98608.28
2023-01-19T13:24:22.562Z,98608.78
2023-01-19T13:26:49.730Z,98614.25
2023-01-19T13:29:30.341Z,98614.25
2023-01-19T13:32:03.004Z,98615.28
2023-01-19T13:34:39.898Z,98624.72
2023-01-19T13:37:16.496Z,98618.72
2023-01-19T13:39:46.249Z,98622.22
2023-01-19T13:42:38.084Z,98633.41
2023-01-19T13:45:25.985Z,98643.63
2023-01-19T13:47:54.568Z,98646.38
2023-01-19T13:50:30.225Z,98649.13
2023-01-19T13:52:59.355Z,98650.34
2023-01-19T13:55:29.046Z,98652.56
2023-01-19T13:57:56.886Z,98664.03
2023-01-19T14:00:24.404Z,98658.28
2023-01-19T14:03:00.549Z,98657.06
2023-01-19T14:05:36.350Z,98666.25
2023-01-19T14:08:12.875Z,98667.25
2023-01-19T14:10:47.348Z,98667.25
2023-01-19T14:13:21.899Z,98674.94
2023-01-19T14:15:54.133Z,98681.69
2023-01-19T14:18:24.838Z,98682.69
2023-01-19T14:21:01.942Z,98676.69
2023-01-19T14:24:06.008Z,98676.44
2023-01-19T14:26:43.777Z,98690.63
2023-01-19T14:29:24.172Z,98680.69
2023-01-19T14:32:06.843Z,98686.88
2023-01-19T14:34:46.098Z,98684.88
2023-01-19T14:37:20.023Z,98695.06
2023-01-19T14:40:08.050Z,98684.88
2023-01-19T14:42:39.499Z,98689.59
2023-01-19T14:45:16.138Z,98693.84
2023-01-19T14:47:46.174Z,98694.06
2023-01-19T14:50:19.875Z,98692.59
2023-01-19T14:52:58.295Z,98690.59
2023-01-19T14:55:35.728Z,98693.81
2023-01-19T14:58:10.455Z,98691.34
2023-01-19T15:00:37.679Z,98697.06
2023-01-19T15:03:06.267Z,98689.59
2023-01-19T15:05:33.806Z,98692.03
2023-01-19T15:08:05.732Z,98693.03
2023-01-19T15:10:34.909Z,98692.53
2023-01-19T15:13:05.017Z,98695.25
2023-01-19T15:15:35.756Z,98695.50
2023-01-19T15:18:04.953Z,98692.25
2023-01-19T15:20:32.089Z,98693.69
2023-01-19T15:23:04.710Z,98693.94
2023-01-19T15:25:34.229Z,98700.66
2023-01-19T15:28:05.201Z,98700.88
2023-01-19T15:30:34.520Z,98697.88
2023-01-19T15:33:02.548Z,98710.03
2023-01-19T15:35:31.778Z,98706.78
2023-01-19T15:38:01.686Z,98710.50
2023-01-19T15:40:28.818Z,98712.97
2023-01-19T15:42:56.239Z,98721.66
2023-01-19T15:45:34.390Z,98712.94
2023-01-19T15:48:04.491Z,98714.69
2023-01-19T15:50:32.409Z,98709.19
2023-01-19T15:52:59.938Z,98712.13
2023-01-19T15:55:27.093Z,98716.59
2023-01-19T15:57:58.745Z,98729.25
2023-01-19T16:00:26.455Z,98734.72
2023-01-19T16:02:54.145Z,98738.44
2023-01-19T16:05:33.996Z,98742.38
2023-01-19T16:08:11.436Z,98748.06
2023-01-19T16:10:39.105Z,98755.00
2023-01-19T16:13:06.770Z,98752.00
2023-01-19T16:15:38.737Z,98753.22
2023-01-19T16:18:06.428Z,98761.41
2023-01-19T16:20:41.110Z,98767.63
2023-01-19T16:23:15.373Z,98768.13
2023-01-19T16:25:43.314Z,98767.84
2023-01-19T16:28:10.907Z,98776.00
2023-01-19T16:30:40.457Z,98766.31
2023-01-19T16:33:09.602Z,98786.19
2023-01-19T16:35:36.923Z,98785.91
2023-01-19T16:38:04.947Z,98794.59
2023-01-19T16:40:34.533Z,98791.09
2023-01-19T16:43:04.782Z,98789.88
2023-01-19T16:45:32.382Z,98793.84
2023-01-19T16:47:59.931Z,98799.06
2023-01-19T16:50:27.149Z,98796.84
2023-01-19T16:53:00.350Z,98805.25
2023-01-19T16:55:42.650Z,98814.41
2023-01-19T16:58:11.140Z,98813.66
2023-01-19T17:00:38.480Z,98818.13
2023-01-19T17:03:09.329Z,98820.88
2023-01-19T17:05:37.000Z,98834.25
2023-01-19T17:08:04.948Z,98840.94
2023-01-19T17:10:35.580Z,98838.91
2023-01-19T17:13:04.981Z,98850.34
2023-01-19T17:15:32.865Z,98850.63
2023-01-19T17:18:01.099Z,98863.56
2023-01-19T17:20:30.386Z,98859.03
2023-01-19T17:22:59.104Z,98865.53
2023-01-19T17:25:27.134Z,98866.00
2023-01-19T17:27:59.212Z,98864.75
2023-01-19T17:30:26.815Z,98871.75
2023-01-19T17:32:54.881Z,98869.22
2023-01-19T17:35:25.276Z,98860.53
2023-01-19T17:37:55.294Z,98864.75
2023-01-19T17:40:26.423Z,98863.50
2023-01-19T17:42:58.603Z,98854.00
2023-01-19T17:45:26.469Z,98850.78
2023-01-19T17:47:55.011Z,98845.81
2023-01-19T17:50:22.877Z,98848.28
2023-01-19T17:52:51.541Z,98836.34
2023-01-19T17:55:20.821Z,98830.63
2023-01-19T17:57:49.319Z,98830.88
2023-01-19T18:00:17.868Z,98835.81
2023-01-19T18:02:51.297Z,98838.25
2023-01-19T18:05:21.227Z,98854.13
2023-01-19T18:07:49.702Z,98861.06
2023-01-19T18:10:19.918Z,98858.06
2023-01-19T18:12:47.957Z,98856.78
2023-01-19T18:15:17.003Z,98853.03
2023-01-19T18:17:45.599Z,98855.47
2023-01-19T18:20:20.049Z,98860.69
2023-01-19T18:22:50.068Z,98864.91
2023-01-19T18:25:18.182Z,98864.63
2023-01-19T18:27:46.255Z,98865.88
2023-01-19T18:30:15.118Z,98869.09
2023-01-19T18:32:44.204Z,98865.03
2023-01-19T18:35:13.497Z,98866.28
2023-01-19T18:37:46.703Z,98881.13
2023-01-19T18:40:15.818Z,98873.91
2023-01-19T18:42:47.258Z,98876.38
2023-01-19T18:45:16.968Z,98871.59
2023-01-19T18:47:51.803Z,98881.97
2023-01-19T18:50:20.293Z,98876.72
2023-01-19T18:52:52.234Z,98879.13
2023-01-19T18:55:24.967Z,98874.13
2023-01-19T18:57:56.518Z,98868.19
2023-01-19T19:00:29.801Z,98869.34
2023-01-19T19:03:03.130Z,98865.53
2023-01-19T19:05:31.498Z,98859.59
2023-01-19T19:08:00.352Z,98855.38
2023-01-19T19:10:28.563Z,98850.22
2023-01-19T19:12:56.597Z,98853.41
2023-01-19T19:15:28.344Z,98862.53
2023-01-19T19:18:00.322Z,98867.44
2023-01-19T19:20:33.000Z,98868.78
2023-01-19T19:23:02.817Z,98878.38
2023-01-19T19:25:34.993Z,98878.78
2023-01-19T19:28:05.114Z,98882.56
2023-01-19T19:30:34.912Z,98885.50
2023-01-19T19:33:03.774Z,98898.16
2023-01-19T19:35:35.025Z,98900.91
2023-01-19T19:38:04.551Z,98900.16
2023-01-19T19:40:35.288Z,98908.81
2023-01-19T19:43:06.708Z,98907.47
2023-01-19T19:45:35.195Z,98905.13
2023-01-19T19:48:04.260Z,98910.13
2023-01-19T19:50:32.786Z,98917.75
2023-01-19T19:53:01.514Z,98910.22
2023-01-19T19:55:34.187Z,98912.28
2023-01-19T19:58:05.198Z,98909.66
2023-01-19T20:00:36.847Z,98910.88
2023-01-19T20:03:06.260Z,98911.16
2023-01-19T20:05:37.085Z,98909.94
2023-01-19T20:08:08.356Z,98897.91
2023-01-19T20:10:38.131Z,98900.81
2023-01-19T20:13:10.925Z,98901.78
2023-01-19T20:15:40.504Z,98902.25
2023-01-19T20:18:11.953Z,98909.38
2023-01-19T20:20:42.249Z,98909.72
2023-01-19T20:23:13.654Z,98912.63
2023-01-19T20:25:41.877Z,98910.28
2023-01-19T20:28:12.837Z,98911.34
2023-01-19T20:30:41.365Z,98907.19
2023-01-19T20:33:10.224Z,98915.09
2023-01-19T20:35:38.285Z,98908.31
2023-01-19T20:38:07.548Z,98904.84
2023-01-19T20:40:35.888Z,98904.19
2023-01-19T20:43:09.706Z,98906.63
2023-01-19T20:45:45.454Z,98911.69
2023-01-19T20:48:16.623Z,98919.03
2023-01-19T20:50:45.813Z,98925.03
2023-01-19T20:53:17.707Z,98927.00
2023-01-19T20:55:46.249Z,98929.91
2023-01-19T20:58:14.963Z,98925.22
2023-01-19T21:00:45.291Z,98916.31
2023-01-19T21:03:16.123Z,98920.31
2023-01-19T21:05:49.208Z,98924.84
2023-01-19T21:08:18.783Z,98932.34
2023-01-19T21:10:47.933Z,98936.44
2023-01-19T21:13:16.640Z,98956.94
2023-01-19T21:15:44.259Z,98955.69
2023-01-19T21:18:15.119Z,98961.44
2023-01-19T21:20:43.164Z,98963.28
2023-01-19T21:23:12.300Z,98968.53
2023-01-19T21:25:48.513Z,98972.44
2023-01-19T21:28:15.914Z,98964.41
2023-01-19T21:30:43.116Z,98964.22
2023-01-19T21:33:11.096Z,98958.78
2023-01-19T21:35:39.511Z,98965.16
2023-01-19T21:38:07.375Z,98964.41
2023-01-19T21:40:36.951Z,98966.53
2023-01-19T21:43:05.069Z,98961.28
2023-01-19T21:45:32.311Z,98962.50
2023-01-19T21:48:02.957Z,98958.72
2023-01-19T21:50:32.693Z,98971.84
2023-01-19T21:53:01.083Z,98966.88
2023-01-19T21:55:28.358Z,98968.28
2023-01-19T21:57:55.749Z,98968.13
2023-01-19T22:00:23.405Z,98966.41
2023-01-19T22:03:03.704Z,98967.34
2023-01-19T22:05:36.718Z,98975.41
2023-01-19T22:08:06.411Z,98975.00
2023-01-19T22:10:39.729Z,98980.44
2023-01-19T22:13:07.767Z,98990.09
2023-01-19T22:15:35.007Z,98990.69
2023-01-19T22:18:02.992Z,99005.09
2023-01-19T22:20:30.269Z,99001.63
2023-01-19T22:22:57.796Z,99010.75
2023-01-19T22:25:27.863Z,99004.94
2023-01-19T22:27:56.294Z,99023.19
2023-01-19T22:30:23.371Z,99022.16
2023-01-19T22:32:51.134Z,99035.75
2023-01-19T22:35:18.314Z,99027.66
2023-01-19T22:37:46.016Z,99031.28
2023-01-19T22:40:13.324Z,99022.56
2023-01-19T22:42:44.604Z,99019.53
2023-01-19T22:45:11.860Z,99016.34
2023-01-19T22:47:39.726Z,99019.53
2023-01-19T22:50:07.937Z,99011.69
2023-01-19T22:52:36.491Z,99003.44
2023-01-19T22:55:04.263Z,99002.56
2023-01-19T22:57:36.944Z,99011.00
2023-01-19T23:00:08.884Z,98998.00
2023-01-19T23:02:37.161Z,99002.31
2023-01-19T23:05:04.521Z,98994.78
2023-01-19T23:07:32.015Z,99002.22
2023-01-19T23:09:59.184Z,99001.81
2023-01-19T23:12:29.359Z,98995.16
2023-01-19T23:14:56.652Z,98991.66
2023-01-19T23:17:24.183Z,98992.75
2023-01-19T23:19:51.372Z,98996.09
2023-01-19T23:22:20.171Z,98989.06
2023-01-19T23:24:48.268Z,98992.09
2023-01-19T23:27:16.667Z,98984.94
2023-01-19T23:29:44.672Z,98979.53
2023-01-19T23:32:12.177Z,98980.78
2023-01-19T23:34:39.314Z,98974.94
2023-01-19T23:37:06.707Z,98980.03
2023-01-19T23:39:33.809Z,98971.63
2023-01-19T23:42:05.232Z,98971.81
2023-01-19T23:44:32.421Z,98973.00
2023-01-19T23:46:59.990Z,98977.22
2023-01-19T23:49:27.195Z,98984.63
2023-01-19T23:51:54.779Z,98979.81
2023-01-19T23:54:21.902Z,98987.19
2023-01-19T23:56:49.405Z,98974.84
2023-01-19T23:59:17.042Z,98974.84
